Maple Lake, Minnesota
Current Conditions -  °F | °C
As of 4:15 PM on Thursday 18 Dec 2014 (Local Time) from KMGG Reporting Station
Broken Clouds Broken Clouds  
Wind Chill: 21°   Ceiling: 1700
Heat Index: 21°   Visibility: 10mi
Dew Point: 17°   Wind: 0mph
Humidity: 83%   Direction: NA
Pressure: 30.26"   Gusts: NA
Location:  45.23°N, 94°W
Report Text: KMGG 182215Z AUTO 00000KT 10SM BKN017 M06/M08 A3026 RMK AO2 T10601085
Loading
Personal Weather Stations






























Interactive Weather Map New forecast layout! Learn more

10-Day Weather Forecast

Advertisements
Track Severe Weather on mobile